Roseburg Regional, OR

12:38 AM PDT on September 30, 2016 (GMT -0700)
Roseburg Regional | | Change Station

Elev 525 ft 43.24 °N, 123.36 °W | Updated 45 minutes ago

Clear
Clear
58 °F
Feels Like 58 °F
N
4
Wind Variable Wind from NNE

Today
High -- | Low -- °F
--% Chance of Precip.
Yesterday
High -- | Low -- °F
Precip. -- in
Pressure 30.04 in
Visibility 10.0 miles
Clouds Clear
Dew Point 44 °F
Humidity 60%
Rainfall 0.00 in
Snow Depth Not available.
7:10 AM 6:55 PM
Waning Crescent, 0% visible
METAR KRBG 300653Z AUTO 02003KT 10SM CLR 14/07 A3004 RMK AO2 SLP171 T01440067
Pressure 30.04 in
Visibility 10.0 miles
Clouds Clear
Dew Point 44 °F
Humidity 60%
Rainfall 0.00 in
Snow Depth Not available.
7:10 AM 6:55 PM
Waning Crescent, 0% visible
METAR KRBG 300653Z AUTO 02003KT 10SM CLR 14/07 A3004 RMK AO2 SLP171 T01440067

10-Day Weather Forecast

Almanac

Astronomy

Sep. 30, 2016 Rise Set
Actual Time
Civil Twilight
Nautical Twilight
Astronomical Twilight
Moon
Length of Visible Light
Length of Day
Tomorrow will be .
, % of the Moon is Illuminated

Today's Extremes

State Highs State Lows

Community

WunderPhotos

Upload Photos

1,942,668 photos uploaded!

WunderBlog® & News

Nearby

Air Quality

  Air Quality AQ Index Pollutant
Not available.

Snow Depth

Station Depth Elevation

Earthquake Activity

City Distance Mag. Time & Date
Minimum magnitude displayed is 2.5.

Coastal Water Temperatures

Place Temperature

Stations

Nearby Weather Stations

Station Location Temp. Windchill Dew Point Humidity Wind Precip. Elev Updated Type
                   

Watches & Warnings

There are currently no watches in effect.